• Join FlightAware (Why Join?)
  • Login
  • US Flag 
 
11:07AM EST


 

Airport Tracker/Info


-or-


 

Live Flight TrackerFlight Track Log ✈ N317FL ✈ 05-May-2013 ✈ KSAF - KSGR

Flight Track Log - Related Links

Times and Time Zones

All times are in EDT time to prevent confusion due to time zone crossing. See the N317FL flight status page for this flight to view local times or setup timezone preferences in your user account.

Time Position Orientation Groundspeed Altitude Reporting Facility
EDT Latitude Longitude Course Direction KTS MPH feet Rate Location/Type
02:06PM 35.5978 -106.0761 121° Southeast 142 163 8,200  Level Albuquerque Center
02:12PM 35.2382 -105.3341 121° Southeast  Level Estimated
02:12PM 35.3690 -105.5570 121° Southeast 342 394 24,100  Level FlightAware
02:13PM 35.3520 -105.5120 115° Southeast 342 394 24,100  Level FlightAware
02:13PM 35.3350 -105.4670 115° Southeast 342 394 24,100  Level FlightAware
02:14PM 35.3120 -105.4070 115° Southeast 342 394 24,100  Level FlightAware
02:15PM 35.2890 -105.3480 116° Southeast 342 394 24,100  Level FlightAware
02:16PM 35.2610 -105.2730 115° Southeast 342 394 24,100 4,500 Level FlightAware
02:17PM 35.1881 -105.0031 115° Southeast 426 490 33,500 4,680 Climbing Albuquerque Center
02:18PM 35.1508 -104.8625 108° East 430 495 34,800 1,260 Climbing Albuquerque Center
02:19PM 35.0928 -104.7253 117° Southeast 447 514 36,200 1,740 Climbing Albuquerque Center
02:20PM 35.0383 -104.5919 116° Southeast 443 510 38,400 1,920 Climbing Albuquerque Center
02:21PM 34.9767 -104.4433 117° Southeast 425 489 40,200 1,320 Climbing Albuquerque Center
02:22PM 34.9247 -104.3192 117° Southeast 415 478 41,200 840 Climbing Albuquerque Center
02:23PM 34.8717 -104.1900 117° Southeast 422 486 42,000 720 Climbing Albuquerque Center
02:24PM 34.8161 -104.0600 117° Southeast 429 494 42,800 720 Climbing Albuquerque Center
02:25PM 34.7617 -103.9289 117° Southeast 432 497 43,600 720 Climbing Albuquerque Center
02:26PM 34.7069 -103.7983 117° Southeast 431 496 44,400 660 Climbing Albuquerque Center
02:27PM 34.6411 -103.6461 118° Southeast 433 498 45,000 240 Climbing Albuquerque Center
02:28PM 34.5847 -103.5122 117° Southeast 439 505 45,000  Level Albuquerque Center
02:29PM 34.5247 -103.3750 118° Southeast 451 519 45,000  Level Albuquerque Center
02:30PM 34.4656 -103.2339 117° Southeast 463 533 45,000  Level Albuquerque Center
02:31PM 34.4033 -103.0919 118° Southeast 472 543 45,000  Level Albuquerque Center
02:32PM 34.3375 -102.9419 118° Southeast 476 548 45,000  Level Albuquerque Center
02:33PM 34.2767 -102.8011 118° Southeast 475 547 45,000  Level Albuquerque Center
02:34PM 34.2136 -102.6572 118° Southeast 470 541 45,000  Level Albuquerque Center
02:35PM 34.1519 -102.5164 118° Southeast 472 543 45,000  Level Albuquerque Center
02:36PM 34.0906 -102.3756 118° Southeast 473 544 45,000  Level Albuquerque Center
02:37PM 34.0339 -102.2503 119° Southeast 473 544 45,000  Level Fort Worth Center
02:38PM 33.9703 -102.1117 119° Southeast 473 544 45,000  Level Fort Worth Center
02:39PM 33.9108 -101.9733 117° Southeast 473 544 45,000  Level Fort Worth Center
02:40PM 33.8492 -101.8300 117° Southeast 473 544 45,000  Level Fort Worth Center
02:41PM 33.7931 -101.6997 117° Southeast 478 550 45,000  Level Fort Worth Center
02:42PM 33.7211 -101.5464 119° Southeast 478 550 45,000  Level Fort Worth Center
02:43PM 33.6625 -101.4214 119° Southeast 478 550 45,000  Level Fort Worth Center
02:44PM 33.5922 -101.2661 118° Southeast 478 550 45,000  Level Fort Worth Center
02:45PM 33.5356 -101.1414 119° Southeast 478 550 45,000  Level Fort Worth Center
02:46PM 33.4728 -101.0019 118° Southeast 478 550 45,000  Level Fort Worth Center
02:52PM 33.0670 -100.1350 118° Southeast 479 551 45,000  Level FlightAware
02:53PM 33.0170 -100.0300 120° Southeast 479 551 45,000 -600 Level FlightAware
02:54PM 32.9750 -99.9400 119° Southeast 491 565 44,200 -1,320 Descending FlightAware
02:54PM 32.9290 -99.8430 119° Southeast 485 558 43,300 -900 Descending FlightAware
02:55PM 32.8790 -99.7380 120° Southeast 477 549 43,000 -240 Descending FlightAware
02:56PM 32.8350 -99.6460 120° Southeast 476 548 43,000  Level FlightAware
02:56PM 32.7920 -99.5570 120° Southeast 475 547 43,000  Level FlightAware
02:57PM 32.7570 -99.4830 119° Southeast 476 548 43,000  Level FlightAware
02:58PM 32.7060 -99.3770 120° Southeast 477 549 43,000  Level FlightAware
02:58PM 32.6630 -99.2880 120° Southeast 477 549 43,000  Level FlightAware
02:59PM 32.6240 -99.2070 120° Southeast 478 550 43,000  Level FlightAware
03:00PM 32.5840 -99.1250 120° Southeast 479 551 43,000  Level FlightAware
03:00PM 32.5400 -99.0330 120° Southeast 480 552 43,000  Level FlightAware
03:01PM 32.4970 -98.9460 120° Southeast 480 552 43,000  Level FlightAware
03:02PM 32.4580 -98.8650 120° Southeast 481 554 43,000  Level FlightAware
03:02PM 32.4130 -98.7720 120° Southeast 480 552 43,000  Level FlightAware
03:03PM 32.3620 -98.6700 121° Southeast 481 554 43,000  Level FlightAware
03:04PM 32.3170 -98.5770 120° Southeast 481 554 43,000  Level FlightAware
03:04PM 32.2730 -98.4870 120° Southeast 482 555 43,000  Level FlightAware
03:05PM 32.2240 -98.3880 120° Southeast 482 555 43,000  Level FlightAware
03:06PM 32.1780 -98.2950 120° Southeast 482 555 43,000  Level FlightAware
03:06PM 32.1390 -98.2170 121° Southeast 482 555 43,000  Level FlightAware
03:07PM 32.0890 -98.1150 120° Southeast 483 556 43,000  Level FlightAware
03:08PM 32.0470 -98.0320 121° Southeast 484 557 43,000 -480 Level FlightAware
03:08PM 31.9970 -97.9310 120° Southeast 488 562 42,400 -900 Descending FlightAware
03:09PM 31.9630 -97.8630 120° Southeast 489 563 41,900 -1,020 Descending FlightAware
03:09PM 31.9200 -97.7790 121° Southeast 490 564 41,300 -1,020 Descending FlightAware
03:10PM 31.8700 -97.6790 120° Southeast 492 566 40,600 -1,020 Descending FlightAware
03:11PM 31.8230 -97.5870 121° Southeast 492 566 39,900 -1,020 Descending FlightAware
03:12PM 31.7650 -97.4710 120° Southeast 493 567 39,100 -1,020 Descending FlightAware
03:12PM 31.7180 -97.3790 121° Southeast 497 572 38,400 -900 Descending FlightAware
03:13PM 31.6740 -97.2960 122° Southeast 498 573 38,000 -420 Descending FlightAware
03:13PM 31.6356 -97.2493 134° Southeast 493 567 38,000  Level FlightAware ADS-B
03:14PM 31.6045 -97.2223 144° Southeast 490 564 38,000 -1,020 Level FlightAware ADS-B
03:14PM 31.5262 -97.1594 146° Southeast 492 566 37,000 -1,500 Descending FlightAware ADS-B
03:15PM 31.4580 -97.1030 145° Southeast 481 554 36,000 -1,560 Descending FlightAware
03:15PM 31.4402 -97.0889 146° Southeast 481 554 35,800 -1,500 Descending FlightAware ADS-B
03:16PM 31.3832 -97.0428 145° Southeast 481 554 35,000 -1,500 Descending FlightAware ADS-B
03:16PM 31.3270 -96.9974 145° Southeast 482 555 34,300 -1,500 Descending FlightAware ADS-B
03:17PM 31.2680 -96.9500 146° Southeast 482 555 33,500 -1,560 Descending FlightAware ADS-B
03:17PM 31.2122 -96.9050 145° Southeast 480 552 32,700 -1,500 Descending FlightAware ADS-B
03:17PM 31.1856 -96.8856 148° Southeast 474 545 32,400 -1,140 Descending FlightAware ADS-B
03:18PM 31.1200 -96.8434 151° Southeast 473 544 31,800 -2,040 Descending FlightAware ADS-B
03:19PM 31.0394 -96.7901 150° Southeast 471 542 29,800 -2,820 Descending FlightAware ADS-B
03:19PM 30.9746 -96.7469 150° Southeast 480 552 28,300 -2,820 Descending FlightAware ADS-B
03:20PM 30.9164 -96.7080 150° Southeast 481 554 26,900 -2,880 Descending FlightAware ADS-B
03:20PM 30.8576 -96.6689 150° Southeast 477 549 25,400 -2,640 Descending FlightAware ADS-B
03:21PM 30.7981 -96.6293 150° Southeast 470 541 24,200 -1,980 Descending FlightAware ADS-B
03:21PM 30.7404 -96.5909 150° Southeast 463 533 23,400 -1,680 Descending FlightAware ADS-B
03:22PM 30.6849 -96.5540 150° Southeast 458 527 22,500 -2,100 Descending FlightAware ADS-B
03:22PM 30.6294 -96.5173 150° Southeast 447 514 21,300 -1,800 Descending FlightAware ADS-B
03:23PM 30.5756 -96.4817 150° Southeast 425 489 20,700 -1,920 Descending FlightAware ADS-B
03:23PM 30.5244 -96.4479 150° Southeast 417 480 19,400 -2,880 Descending FlightAware ADS-B
03:24PM 30.4742 -96.4147 150° Southeast 403 464 17,800 -3,480 Descending FlightAware ADS-B
03:24PM 30.4263 -96.3831 150° Southeast 389 448 15,900 -3,540 Descending FlightAware ADS-B
03:25PM 30.3785 -96.3517 150° Southeast 397 457 14,300 -3,240 Descending FlightAware ADS-B
03:25PM 30.3300 -96.3197 150° Southeast 394 453 12,700 -3,300 Descending FlightAware ADS-B
03:26PM 30.3086 -96.3060 151° Southeast 386 444 11,900 -3,420 Descending FlightAware ADS-B
03:26PM 30.2927 -96.2982 157° South 377 434 11,400 -3,360 Descending FlightAware ADS-B
03:26PM 30.2601 -96.2860 162° South 363 418 10,300 -2,940 Descending FlightAware ADS-B
03:26PM 30.2347 -96.2760 161° South 347 399 9,600 -2,280 Descending FlightAware ADS-B
03:27PM 30.2119 -96.2670 161° South 333 383 9,100 -2,040 Descending FlightAware ADS-B
03:27PM 30.1903 -96.2585 161° South 321 369 8,600 -2,040 Descending FlightAware ADS-B
03:27PM 30.1692 -96.2502 161° South 318 366 8,100 -1,800 Descending FlightAware ADS-B
03:27PM 30.1471 -96.2417 162° South 313 360 7,700 -1,560 Descending FlightAware ADS-B
03:28PM 30.1264 -96.2336 161° South 308 354 7,300 -1,380 Descending FlightAware ADS-B
03:28PM 30.1052 -96.2254 161° South 301 346 7,000 -780 Descending FlightAware ADS-B
03:28PM 30.0829 -96.2168 162° South 307 353 6,900 -240 Descending FlightAware ADS-B
03:28PM 30.0626 -96.2088 161° South 305 351 6,900  Level FlightAware ADS-B
03:29PM 30.0426 -96.2011 162° South 305 351 6,900  Level FlightAware ADS-B
03:29PM 30.0213 -96.1928 161° South 305 351 6,900 -240 Level FlightAware ADS-B
03:29PM 30.0006 -96.1848 161° South 296 341 6,800 -840 Descending FlightAware ADS-B
03:29PM 29.9808 -96.1772 162° South 302 348 6,500 -1,200 Descending FlightAware ADS-B
03:30PM 29.9595 -96.1700 164° South 303 349 6,200 -1,200 Descending FlightAware ADS-B
03:30PM 29.9405 -96.1636 164° South 303 349 5,900 -1,380 Descending FlightAware ADS-B
03:30PM 29.9361 -96.1618 160° South 302 348 5,800 -1,740 Descending FlightAware ADS-B
03:30PM 29.9315 -96.1593 155° Southeast 303 349 5,700 -1,740 Descending FlightAware ADS-B
03:30PM 29.9267 -96.1559 148° Southeast 306 352 5,600 -900 Descending FlightAware ADS-B
03:30PM 29.9231 -96.1524 140° Southeast 307 353 5,600 -900 Level FlightAware ADS-B
03:30PM 29.9195 -96.1483 135° Southeast 309 356 5,500 -1,740 Descending FlightAware ADS-B
03:30PM 29.9165 -96.1443 131° Southeast 311 358 5,400 -1,320 Descending FlightAware ADS-B
03:30PM 29.9065 -96.1300 129° Southeast 312 359 5,200 -1,020 Descending FlightAware ADS-B
03:31PM 29.8943 -96.1139 131° Southeast 298 343 5,000 -660 Descending FlightAware ADS-B
03:31PM 29.8804 -96.0964 132° Southeast 295 339 4,900 -240 Descending FlightAware ADS-B
03:31PM 29.8667 -96.0790 132° Southeast 295 339 4,900  Level FlightAware ADS-B
03:31PM 29.8526 -96.0609 132° Southeast 294 338 4,900  Level FlightAware ADS-B
03:32PM 29.8386 -96.0430 132° Southeast 294 338 4,900 -240 Level FlightAware ADS-B
03:32PM 29.8246 -96.0250 132° Southeast 285 328 4,800 -600 Descending FlightAware ADS-B
03:32PM 29.8113 -96.0080 132° Southeast 291 335 4,600 -1,020 Descending FlightAware ADS-B
03:32PM 29.7972 -95.9898 132° Southeast 298 343 4,300 -1,200 Descending FlightAware ADS-B
03:33PM 29.7832 -95.9719 132° Southeast 299 344 4,000 -780 Descending FlightAware ADS-B
03:33PM 29.7686 -95.9532 132° Southeast 288 331 3,900 -240 Descending FlightAware ADS-B
03:33PM 29.7554 -95.9362 132° Southeast 280 322 3,900  Level FlightAware ADS-B
03:33PM 29.7415 -95.9185 132° Southeast 292 336 3,900  Level FlightAware ADS-B
03:34PM 29.7275 -95.9005 132° Southeast 294 338 3,900  Level FlightAware ADS-B
03:34PM 29.7144 -95.8837 132° Southeast 266 306 3,900 -780 Level FlightAware ADS-B
03:34PM 29.7020 -95.8679 132° Southeast 256 295 3,500 -1,380 Descending FlightAware ADS-B
03:34PM 29.6903 -95.8530 132° Southeast 249 287 3,200 -1,200 Descending FlightAware ADS-B
03:35PM 29.6788 -95.8383 132° Southeast 239 275 2,900 -1,020 Descending FlightAware ADS-B
03:35PM 29.6765 -95.8356 134° Southeast 235 270 2,900  Level FlightAware ADS-B
03:35PM 29.6740 -95.8330 138° Southeast 232 267 2,900  Level FlightAware ADS-B
03:35PM 29.6614 -95.8211 141° Southeast 231 266 2,900 -420 Level FlightAware ADS-B
03:35PM 29.6492 -95.8097 141° Southeast 219 252 2,700 -780 Descending FlightAware ADS-B
03:36PM 29.6369 -95.7980 140° Southeast 215 247 2,500 -840 Descending FlightAware ADS-B
03:36PM 29.6328 -95.7939 139° Southeast 215 247 2,400 -1,380 Descending FlightAware ADS-B
03:36PM 29.6303 -95.7909 134° Southeast 214 246 2,300 -1,020 Descending FlightAware ADS-B
03:36PM 29.6200 -95.7782 133° Southeast 216 249 2,100 -900 Descending FlightAware ADS-B
03:36PM 29.6115 -95.7676 133° Southeast 228 262 1,900 -600 Descending FlightAware ADS-B
03:36PM 29.6052 -95.7594 131° Southeast 233 268 1,900  Level FlightAware ADS-B
03:37PM 29.5816 -95.7278 131° Southeast 200 230 1,900 -180 Level FlightAware ADS-B
03:38PM 29.5622 -95.6806 115° Southeast 139 160 1,700 -300 Descending FlightAware ADS-B
03:38PM 29.5618 -95.6777 99° East 140 161 1,600 -1,380 Descending FlightAware ADS-B
03:38PM 29.5613 -95.6737 98° East 140 161 1,500 -1,140 Descending FlightAware ADS-B
03:38PM 29.5616 -95.6661 87° East 130 150 1,300 -900 Descending FlightAware ADS-B
03:38PM 29.5643 -95.6611 58° Northeast 120 138 1,200 -720 Descending FlightAware ADS-B
03:39PM 29.5676 -95.6577 42° Northeast 117 135 1,100 -720 Descending FlightAware ADS-B
03:39PM 29.5720 -95.6553 25° Northeast 116 133 1,000 -600 Descending FlightAware ADS-B
03:39PM 29.5772 -95.6536 16° North 117 135 900 -780 Descending FlightAware ADS-B
03:39PM 29.5872 -95.6532 North 105 121 600 -720 Descending FlightAware ADS-B
03:40PM 29.6021 -95.6545 356° North 99 114 300 -180 Descending FlightAware ADS-B
03:40PM 29.6167 -95.6561 356° North 122 140 400 120 Climbing Houston Center